sensor_id;sensor_type;location;lat;lon;timestamp;P1;durP1;ratioP1;P2;durP2;ratioP2
6547;SDS011;3307;52.416;16.862;2023-11-19T00:01:04;43.33;;;36.73;;
6547;SDS011;3307;52.416;16.862;2023-11-19T00:03:30;46.25;;;37.50;;
6547;SDS011;3307;52.416;16.862;2023-11-19T00:05:55;45.27;;;37.80;;
6547;SDS011;3307;52.416;16.862;2023-11-19T00:08:21;42.37;;;36.33;;
6547;SDS011;3307;52.416;16.862;2023-11-19T00:10:46;45.10;;;36.37;;
6547;SDS011;3307;52.416;16.862;2023-11-19T00:13:12;43.07;;;37.93;;
6547;SDS011;3307;52.416;16.862;2023-11-19T00:15:37;43.47;;;38.07;;
6547;SDS011;3307;52.416;16.862;2023-11-19T00:18:02;46.33;;;39.80;;
6547;SDS011;3307;52.416;16.862;2023-11-19T00:20:29;45.88;;;39.25;;
6547;SDS011;3307;52.416;16.862;2023-11-19T00:22:55;46.93;;;39.30;;
6547;SDS011;3307;52.416;16.862;2023-11-19T00:25:20;42.67;;;37.70;;
6547;SDS011;3307;52.416;16.862;2023-11-19T00:27:49;48.90;;;41.80;;
6547;SDS011;3307;52.416;16.862;2023-11-19T00:30:15;49.33;;;39.67;;
6547;SDS011;3307;52.416;16.862;2023-11-19T00:32:41;43.42;;;37.70;;
6547;SDS011;3307;52.416;16.862;2023-11-19T00:35:07;44.57;;;39.20;;
6547;SDS011;3307;52.416;16.862;2023-11-19T00:37:33;44.60;;;39.07;;
6547;SDS011;3307;52.416;16.862;2023-11-19T00:39:59;48.00;;;41.38;;
6547;SDS011;3307;52.416;16.862;2023-11-19T00:42:24;46.63;;;38.50;;
6547;SDS011;3307;52.416;16.862;2023-11-19T00:44:53;48.60;;;40.57;;
6547;SDS011;3307;52.416;16.862;2023-11-19T00:47:18;47.50;;;40.97;;
6547;SDS011;3307;52.416;16.862;2023-11-19T00:49:45;47.78;;;40.97;;
6547;SDS011;3307;52.416;16.862;2023-11-19T00:52:13;51.25;;;42.08;;
6547;SDS011;3307;52.416;16.862;2023-11-19T00:54:38;48.40;;;39.67;;
6547;SDS011;3307;52.416;16.862;2023-11-19T00:57:04;45.33;;;40.17;;
6547;SDS011;3307;52.416;16.862;2023-11-19T00:59:30;48.03;;;40.03;;
6547;SDS011;3307;52.416;16.862;2023-11-19T01:01:56;47.73;;;39.53;;
6547;SDS011;3307;52.416;16.862;2023-11-19T01:04:21;46.13;;;40.53;;
6547;SDS011;3307;52.416;16.862;2023-11-19T01:06:47;44.70;;;38.83;;
6547;SDS011;3307;52.416;16.862;2023-11-19T01:09:12;47.23;;;39.97;;
6547;SDS011;3307;52.416;16.862;2023-11-19T01:11:37;49.23;;;40.50;;
6547;SDS011;3307;52.416;16.862;2023-11-19T01:14:04;45.05;;;38.28;;
6547;SDS011;3307;52.416;16.862;2023-11-19T01:16:29;47.03;;;40.13;;
6547;SDS011;3307;52.416;16.862;2023-11-19T01:18:55;48.30;;;39.53;;
6547;SDS011;3307;52.416;16.862;2023-11-19T01:21:21;47.90;;;39.63;;
6547;SDS011;3307;52.416;16.862;2023-11-19T01:23:47;47.60;;;38.30;;
6547;SDS011;3307;52.416;16.862;2023-11-19T01:26:12;46.23;;;37.17;;
6547;SDS011;3307;52.416;16.862;2023-11-19T01:28:38;47.03;;;38.40;;
6547;SDS011;3307;52.416;16.862;2023-11-19T01:31:04;46.13;;;39.05;;
6547;SDS011;3307;52.416;16.862;2023-11-19T01:33:30;54.53;;;40.30;;
6547;SDS011;3307;52.416;16.862;2023-11-19T01:35:55;47.50;;;40.23;;
6547;SDS011;3307;52.416;16.862;2023-11-19T01:38:23;43.22;;;37.55;;
6547;SDS011;3307;52.416;16.862;2023-11-19T01:40:49;43.40;;;37.23;;
6547;SDS011;3307;52.416;16.862;2023-11-19T01:43:30;47.07;;;39.60;;
6547;SDS011;3307;52.416;16.862;2023-11-19T01:45:58;49.08;;;42.88;;
6547;SDS011;3307;52.416;16.862;2023-11-19T01:48:23;45.37;;;38.63;;
6547;SDS011;3307;52.416;16.862;2023-11-19T01:50:48;50.03;;;40.13;;
6547;SDS011;3307;52.416;16.862;2023-11-19T01:53:14;51.72;;;42.80;;
6547;SDS011;3307;52.416;16.862;2023-11-19T01:55:40;51.70;;;43.37;;
6547;SDS011;3307;52.416;16.862;2023-11-19T01:58:05;52.50;;;43.23;;
6547;SDS011;3307;52.416;16.862;2023-11-19T02:00:32;51.88;;;44.88;;
6547;SDS011;3307;52.416;16.862;2023-11-19T02:02:58;52.28;;;44.63;;
6547;SDS011;3307;52.416;16.862;2023-11-19T02:05:23;53.47;;;45.20;;
6547;SDS011;3307;52.416;16.862;2023-11-19T02:07:49;52.67;;;44.83;;
6547;SDS011;3307;52.416;16.862;2023-11-19T02:10:16;54.65;;;44.08;;
6547;SDS011;3307;52.416;16.862;2023-11-19T02:12:44;52.63;;;43.05;;
6547;SDS011;3307;52.416;16.862;2023-11-19T02:15:09;55.53;;;46.47;;
6547;SDS011;3307;52.416;16.862;2023-11-19T02:17:35;51.50;;;43.57;;
6547;SDS011;3307;52.416;16.862;2023-11-19T02:20:02;54.38;;;43.92;;
6547;SDS011;3307;52.416;16.862;2023-11-19T02:22:31;50.28;;;42.90;;
6547;SDS011;3307;52.416;16.862;2023-11-19T02:24:59;50.33;;;43.80;;
6547;SDS011;3307;52.416;16.862;2023-11-19T02:27:36;54.22;;;42.10;;
6547;SDS011;3307;52.416;16.862;2023-11-19T02:30:13;49.88;;;41.83;;
6547;SDS011;3307;52.416;16.862;2023-11-19T02:32:40;53.85;;;42.55;;
6547;SDS011;3307;52.416;16.862;2023-11-19T02:35:06;51.85;;;42.17;;
6547;SDS011;3307;52.416;16.862;2023-11-19T02:37:33;53.42;;;42.17;;
6547;SDS011;3307;52.416;16.862;2023-11-19T02:39:59;49.58;;;41.55;;
6547;SDS011;3307;52.416;16.862;2023-11-19T02:42:34;48.03;;;39.25;;
6547;SDS011;3307;52.416;16.862;2023-11-19T02:45:00;47.60;;;40.15;;
6547;SDS011;3307;52.416;16.862;2023-11-19T02:47:26;51.10;;;41.05;;
6547;SDS011;3307;52.416;16.862;2023-11-19T02:49:55;50.38;;;41.35;;
6547;SDS011;3307;52.416;16.862;2023-11-19T02:52:20;48.23;;;40.47;;
6547;SDS011;3307;52.416;16.862;2023-11-19T02:54:46;51.57;;;40.43;;
6547;SDS011;3307;52.416;16.862;2023-11-19T02:57:11;44.67;;;38.70;;
6547;SDS011;3307;52.416;16.862;2023-11-19T02:59:38;53.30;;;41.20;;
6547;SDS011;3307;52.416;16.862;2023-11-19T03:02:07;46.92;;;38.72;;
6547;SDS011;3307;52.416;16.862;2023-11-19T03:04:36;48.53;;;38.08;;
6547;SDS011;3307;52.416;16.862;2023-11-19T03:07:05;46.13;;;36.78;;
6547;SDS011;3307;52.416;16.862;2023-11-19T03:09:33;47.03;;;39.72;;
6547;SDS011;3307;52.416;16.862;2023-11-19T03:12:00;42.78;;;37.72;;
6547;SDS011;3307;52.416;16.862;2023-11-19T03:14:26;45.37;;;38.20;;
6547;SDS011;3307;52.416;16.862;2023-11-19T03:16:51;46.03;;;37.90;;
6547;SDS011;3307;52.416;16.862;2023-11-19T03:19:16;43.80;;;36.70;;
6547;SDS011;3307;52.416;16.862;2023-11-19T03:21:42;51.20;;;39.43;;
6547;SDS011;3307;52.416;16.862;2023-11-19T03:24:07;44.73;;;35.90;;
6547;SDS011;3307;52.416;16.862;2023-11-19T03:26:33;45.43;;;37.87;;
6547;SDS011;3307;52.416;16.862;2023-11-19T03:28:59;46.28;;;37.53;;
6547;SDS011;3307;52.416;16.862;2023-11-19T03:31:24;50.80;;;38.60;;
6547;SDS011;3307;52.416;16.862;2023-11-19T03:33:50;47.97;;;38.87;;
6547;SDS011;3307;52.416;16.862;2023-11-19T03:36:16;48.97;;;38.13;;
6547;SDS011;3307;52.416;16.862;2023-11-19T03:38:41;42.87;;;37.87;;
6547;SDS011;3307;52.416;16.862;2023-11-19T03:41:16;47.20;;;37.45;;
6547;SDS011;3307;52.416;16.862;2023-11-19T03:43:42;44.78;;;36.80;;
6547;SDS011;3307;52.416;16.862;2023-11-19T03:46:17;44.90;;;38.03;;
6547;SDS011;3307;52.416;16.862;2023-11-19T03:48:43;45.20;;;36.60;;
6547;SDS011;3307;52.416;16.862;2023-11-19T03:51:09;45.37;;;37.90;;
6547;SDS011;3307;52.416;16.862;2023-11-19T03:53:34;43.93;;;37.77;;
6547;SDS011;3307;52.416;16.862;2023-11-19T03:56:00;46.42;;;37.97;;
6547;SDS011;3307;52.416;16.862;2023-11-19T03:58:26;43.90;;;36.60;;
6547;SDS011;3307;52.416;16.862;2023-11-19T04:00:51;43.53;;;36.30;;
6547;SDS011;3307;52.416;16.862;2023-11-19T04:03:17;45.42;;;37.00;;
6547;SDS011;3307;52.416;16.862;2023-11-19T04:05:44;47.00;;;37.33;;
6547;SDS011;3307;52.416;16.862;2023-11-19T04:08:10;42.47;;;35.00;;
6547;SDS011;3307;52.416;16.862;2023-11-19T04:10:35;43.90;;;36.57;;
6547;SDS011;3307;52.416;16.862;2023-11-19T04:13:00;39.33;;;33.17;;
6547;SDS011;3307;52.416;16.862;2023-11-19T04:15:26;43.00;;;35.13;;
6547;SDS011;3307;52.416;16.862;2023-11-19T04:17:51;42.77;;;35.00;;
6547;SDS011;3307;52.416;16.862;2023-11-19T04:20:16;41.40;;;35.00;;
6547;SDS011;3307;52.416;16.862;2023-11-19T04:22:42;44.43;;;35.90;;
6547;SDS011;3307;52.416;16.862;2023-11-19T04:25:07;41.77;;;34.87;;
6547;SDS011;3307;52.416;16.862;2023-11-19T04:27:33;42.95;;;34.40;;
6547;SDS011;3307;52.416;16.862;2023-11-19T04:29:59;37.53;;;33.13;;
6547;SDS011;3307;52.416;16.862;2023-11-19T04:32:26;40.72;;;34.20;;
6547;SDS011;3307;52.416;16.862;2023-11-19T04:34:52;38.97;;;33.13;;
6547;SDS011;3307;52.416;16.862;2023-11-19T04:37:17;39.70;;;32.80;;
6547;SDS011;3307;52.416;16.862;2023-11-19T04:39:44;40.27;;;34.73;;
6547;SDS011;3307;52.416;16.862;2023-11-19T04:42:11;39.60;;;34.47;;
6547;SDS011;3307;52.416;16.862;2023-11-19T04:44:36;41.70;;;33.50;;
6547;SDS011;3307;52.416;16.862;2023-11-19T04:47:01;37.60;;;31.50;;
6547;SDS011;3307;52.416;16.862;2023-11-19T04:49:27;39.70;;;32.17;;
6547;SDS011;3307;52.416;16.862;2023-11-19T04:51:52;37.90;;;31.87;;
6547;SDS011;3307;52.416;16.862;2023-11-19T04:54:18;39.55;;;32.10;;
6547;SDS011;3307;52.416;16.862;2023-11-19T04:56:46;34.67;;;28.77;;
6547;SDS011;3307;52.416;16.862;2023-11-19T04:59:12;37.58;;;31.80;;
6547;SDS011;3307;52.416;16.862;2023-11-19T05:01:37;36.30;;;30.50;;
6547;SDS011;3307;52.416;16.862;2023-11-19T05:04:03;36.67;;;31.40;;
6547;SDS011;3307;52.416;16.862;2023-11-19T05:06:29;38.33;;;31.53;;
6547;SDS011;3307;52.416;16.862;2023-11-19T05:08:58;36.67;;;31.48;;
6547;SDS011;3307;52.416;16.862;2023-11-19T05:11:33;37.50;;;31.00;;
6547;SDS011;3307;52.416;16.862;2023-11-19T05:14:04;39.88;;;31.95;;
6547;SDS011;3307;52.416;16.862;2023-11-19T05:16:29;39.03;;;33.17;;
6547;SDS011;3307;52.416;16.862;2023-11-19T05:18:55;36.07;;;30.67;;
6547;SDS011;3307;52.416;16.862;2023-11-19T05:21:20;37.63;;;30.60;;
6547;SDS011;3307;52.416;16.862;2023-11-19T05:23:46;37.23;;;32.80;;
6547;SDS011;3307;52.416;16.862;2023-11-19T05:26:18;34.30;;;29.87;;
6547;SDS011;3307;52.416;16.862;2023-11-19T05:28:45;35.80;;;30.25;;
6547;SDS011;3307;52.416;16.862;2023-11-19T05:31:10;39.07;;;31.50;;
6547;SDS011;3307;52.416;16.862;2023-11-19T05:33:36;40.63;;;30.57;;
6547;SDS011;3307;52.416;16.862;2023-11-19T05:36:01;37.57;;;30.17;;
6547;SDS011;3307;52.416;16.862;2023-11-19T05:38:28;33.63;;;29.88;;
6547;SDS011;3307;52.416;16.862;2023-11-19T05:40:54;34.67;;;29.20;;
6547;SDS011;3307;52.416;16.862;2023-11-19T05:43:19;32.87;;;29.27;;
6547;SDS011;3307;52.416;16.862;2023-11-19T05:45:45;35.10;;;30.87;;
6547;SDS011;3307;52.416;16.862;2023-11-19T05:48:10;33.97;;;27.63;;
6547;SDS011;3307;52.416;16.862;2023-11-19T05:50:35;34.27;;;28.17;;
6547;SDS011;3307;52.416;16.862;2023-11-19T05:53:01;33.80;;;28.10;;
6547;SDS011;3307;52.416;16.862;2023-11-19T05:55:26;35.13;;;29.70;;
6547;SDS011;3307;52.416;16.862;2023-11-19T05:57:53;37.80;;;29.20;;
6547;SDS011;3307;52.416;16.862;2023-11-19T06:00:18;32.60;;;28.17;;
6547;SDS011;3307;52.416;16.862;2023-11-19T06:02:44;32.23;;;26.40;;
6547;SDS011;3307;52.416;16.862;2023-11-19T06:05:09;29.70;;;26.60;;
6547;SDS011;3307;52.416;16.862;2023-11-19T06:07:35;33.20;;;26.97;;
6547;SDS011;3307;52.416;16.862;2023-11-19T06:10:01;34.95;;;28.73;;
6547;SDS011;3307;52.416;16.862;2023-11-19T06:12:27;32.70;;;26.42;;
6547;SDS011;3307;52.416;16.862;2023-11-19T06:14:53;31.63;;;25.90;;
6547;SDS011;3307;52.416;16.862;2023-11-19T06:17:18;32.27;;;26.37;;
6547;SDS011;3307;52.416;16.862;2023-11-19T06:19:43;28.90;;;24.43;;
6547;SDS011;3307;52.416;16.862;2023-11-19T06:22:10;31.55;;;26.45;;
6547;SDS011;3307;52.416;16.862;2023-11-19T06:24:36;29.98;;;26.73;;
6547;SDS011;3307;52.416;16.862;2023-11-19T06:27:01;29.27;;;26.13;;
6547;SDS011;3307;52.416;16.862;2023-11-19T06:29:27;29.57;;;26.50;;
6547;SDS011;3307;52.416;16.862;2023-11-19T06:31:52;30.27;;;27.00;;
6547;SDS011;3307;52.416;16.862;2023-11-19T06:34:17;31.93;;;26.20;;
6547;SDS011;3307;52.416;16.862;2023-11-19T06:36:43;30.17;;;26.97;;
6547;SDS011;3307;52.416;16.862;2023-11-19T06:39:08;34.07;;;27.77;;
6547;SDS011;3307;52.416;16.862;2023-11-19T06:41:35;28.90;;;25.90;;
6547;SDS011;3307;52.416;16.862;2023-11-19T06:44:02;29.67;;;26.42;;
6547;SDS011;3307;52.416;16.862;2023-11-19T06:46:29;32.63;;;27.63;;
6547;SDS011;3307;52.416;16.862;2023-11-19T06:48:55;30.17;;;25.70;;
6547;SDS011;3307;52.416;16.862;2023-11-19T06:51:20;28.83;;;25.60;;
6547;SDS011;3307;52.416;16.862;2023-11-19T06:53:45;31.13;;;26.03;;
6547;SDS011;3307;52.416;16.862;2023-11-19T06:56:18;30.30;;;26.10;;
6547;SDS011;3307;52.416;16.862;2023-11-19T06:58:46;30.95;;;26.58;;
6547;SDS011;3307;52.416;16.862;2023-11-19T07:01:13;28.73;;;24.73;;
6547;SDS011;3307;52.416;16.862;2023-11-19T07:03:39;29.63;;;26.40;;
6547;SDS011;3307;52.416;16.862;2023-11-19T07:06:04;34.00;;;26.97;;
6547;SDS011;3307;52.416;16.862;2023-11-19T07:08:30;29.10;;;25.83;;
6547;SDS011;3307;52.416;16.862;2023-11-19T07:10:56;28.60;;;23.83;;
6547;SDS011;3307;52.416;16.862;2023-11-19T07:13:21;33.50;;;26.93;;
6547;SDS011;3307;52.416;16.862;2023-11-19T07:15:46;31.30;;;25.90;;
6547;SDS011;3307;52.416;16.862;2023-11-19T07:18:12;27.37;;;23.17;;
6547;SDS011;3307;52.416;16.862;2023-11-19T07:20:37;29.47;;;24.93;;
6547;SDS011;3307;52.416;16.862;2023-11-19T07:23:03;31.43;;;25.70;;
6547;SDS011;3307;52.416;16.862;2023-11-19T07:25:28;27.87;;;24.37;;
6547;SDS011;3307;52.416;16.862;2023-11-19T07:27:54;27.63;;;24.63;;
6547;SDS011;3307;52.416;16.862;2023-11-19T07:30:19;29.00;;;23.97;;
6547;SDS011;3307;52.416;16.862;2023-11-19T07:32:44;29.50;;;26.27;;
6547;SDS011;3307;52.416;16.862;2023-11-19T07:35:10;25.77;;;22.97;;
6547;SDS011;3307;52.416;16.862;2023-11-19T07:37:35;29.50;;;22.63;;
6547;SDS011;3307;52.416;16.862;2023-11-19T07:40:01;27.13;;;22.83;;
6547;SDS011;3307;52.416;16.862;2023-11-19T07:42:26;24.43;;;21.87;;
6547;SDS011;3307;52.416;16.862;2023-11-19T07:44:52;26.33;;;23.30;;
6547;SDS011;3307;52.416;16.862;2023-11-19T07:47:19;26.48;;;22.40;;
6547;SDS011;3307;52.416;16.862;2023-11-19T07:49:44;26.10;;;21.73;;
6547;SDS011;3307;52.416;16.862;2023-11-19T07:52:10;26.10;;;21.97;;
6547;SDS011;3307;52.416;16.862;2023-11-19T07:54:35;24.27;;;21.30;;
6547;SDS011;3307;52.416;16.862;2023-11-19T07:57:00;25.10;;;20.50;;
6547;SDS011;3307;52.416;16.862;2023-11-19T07:59:26;24.77;;;20.37;;
6547;SDS011;3307;52.416;16.862;2023-11-19T08:01:52;26.10;;;21.17;;
6547;SDS011;3307;52.416;16.862;2023-11-19T08:04:17;22.93;;;19.23;;
6547;SDS011;3307;52.416;16.862;2023-11-19T08:06:42;22.33;;;19.93;;
6547;SDS011;3307;52.416;16.862;2023-11-19T08:09:08;21.27;;;18.40;;
6547;SDS011;3307;52.416;16.862;2023-11-19T08:11:38;24.33;;;19.25;;
6547;SDS011;3307;52.416;16.862;2023-11-19T08:14:04;22.83;;;19.85;;
6547;SDS011;3307;52.416;16.862;2023-11-19T08:16:30;30.40;;;26.10;;
6547;SDS011;3307;52.416;16.862;2023-11-19T08:18:55;23.50;;;19.30;;
6547;SDS011;3307;52.416;16.862;2023-11-19T08:21:23;22.33;;;19.67;;
6547;SDS011;3307;52.416;16.862;2023-11-19T08:23:48;20.87;;;18.67;;
6547;SDS011;3307;52.416;16.862;2023-11-19T08:26:14;22.40;;;19.40;;
6547;SDS011;3307;52.416;16.862;2023-11-19T08:28:40;23.05;;;19.08;;
6547;SDS011;3307;52.416;16.862;2023-11-19T08:31:05;21.17;;;18.87;;
6547;SDS011;3307;52.416;16.862;2023-11-19T08:33:31;25.30;;;20.20;;
6547;SDS011;3307;52.416;16.862;2023-11-19T08:35:56;21.23;;;18.37;;
6547;SDS011;3307;52.416;16.862;2023-11-19T08:38:23;22.13;;;19.83;;
6547;SDS011;3307;52.416;16.862;2023-11-19T08:40:49;22.60;;;20.17;;
6547;SDS011;3307;52.416;16.862;2023-11-19T08:43:14;23.53;;;19.30;;
6547;SDS011;3307;52.416;16.862;2023-11-19T08:45:39;25.37;;;20.57;;
6547;SDS011;3307;52.416;16.862;2023-11-19T08:48:05;24.90;;;20.70;;
6547;SDS011;3307;52.416;16.862;2023-11-19T08:50:30;25.17;;;19.70;;
6547;SDS011;3307;52.416;16.862;2023-11-19T08:52:56;25.20;;;19.87;;
6547;SDS011;3307;52.416;16.862;2023-11-19T08:55:21;22.20;;;18.57;;
6547;SDS011;3307;52.416;16.862;2023-11-19T08:57:46;25.10;;;19.90;;
6547;SDS011;3307;52.416;16.862;2023-11-19T09:00:12;24.33;;;20.73;;
6547;SDS011;3307;52.416;16.862;2023-11-19T09:02:39;22.60;;;20.20;;
6547;SDS011;3307;52.416;16.862;2023-11-19T09:05:04;29.80;;;22.23;;
6547;SDS011;3307;52.416;16.862;2023-11-19T09:07:32;25.92;;;20.42;;
6547;SDS011;3307;52.416;16.862;2023-11-19T09:09:57;28.13;;;22.03;;
6547;SDS011;3307;52.416;16.862;2023-11-19T09:12:23;28.10;;;21.67;;
6547;SDS011;3307;52.416;16.862;2023-11-19T09:14:48;25.17;;;21.40;;
6547;SDS011;3307;52.416;16.862;2023-11-19T09:17:14;23.50;;;20.20;;
6547;SDS011;3307;52.416;16.862;2023-11-19T09:19:40;27.53;;;23.57;;
6547;SDS011;3307;52.416;16.862;2023-11-19T09:22:05;25.63;;;21.83;;
6547;SDS011;3307;52.416;16.862;2023-11-19T09:24:31;27.27;;;21.70;;
6547;SDS011;3307;52.416;16.862;2023-11-19T09:26:56;27.73;;;21.80;;
6547;SDS011;3307;52.416;16.862;2023-11-19T09:29:22;25.53;;;21.70;;
6547;SDS011;3307;52.416;16.862;2023-11-19T09:31:47;26.30;;;22.27;;
6547;SDS011;3307;52.416;16.862;2023-11-19T09:34:13;23.70;;;20.20;;
6547;SDS011;3307;52.416;16.862;2023-11-19T09:36:38;24.90;;;22.17;;
6547;SDS011;3307;52.416;16.862;2023-11-19T09:39:04;31.30;;;23.60;;
6547;SDS011;3307;52.416;16.862;2023-11-19T09:41:30;26.73;;;23.02;;
6547;SDS011;3307;52.416;16.862;2023-11-19T09:43:56;28.77;;;24.75;;
6547;SDS011;3307;52.416;16.862;2023-11-19T09:46:21;28.37;;;25.20;;
6547;SDS011;3307;52.416;16.862;2023-11-19T09:48:49;28.52;;;25.63;;
6547;SDS011;3307;52.416;16.862;2023-11-19T09:51:19;28.17;;;24.90;;
6547;SDS011;3307;52.416;16.862;2023-11-19T09:53:45;33.17;;;29.87;;
6547;SDS011;3307;52.416;16.862;2023-11-19T09:56:12;49.88;;;45.38;;
6547;SDS011;3307;52.416;16.862;2023-11-19T09:58:37;77.47;;;70.93;;
6547;SDS011;3307;52.416;16.862;2023-11-19T10:01:03;40.23;;;36.37;;
6547;SDS011;3307;52.416;16.862;2023-11-19T10:03:32;34.35;;;30.85;;
6547;SDS011;3307;52.416;16.862;2023-11-19T10:06:04;31.38;;;28.30;;
6547;SDS011;3307;52.416;16.862;2023-11-19T10:08:32;29.38;;;26.35;;
6547;SDS011;3307;52.416;16.862;2023-11-19T10:10:57;27.57;;;22.40;;
6547;SDS011;3307;52.416;16.862;2023-11-19T10:13:26;28.58;;;25.58;;
6547;SDS011;3307;52.416;16.862;2023-11-19T10:15:53;27.95;;;23.30;;
6547;SDS011;3307;52.416;16.862;2023-11-19T10:18:18;26.67;;;23.90;;
6547;SDS011;3307;52.416;16.862;2023-11-19T10:20:43;29.70;;;25.97;;
6547;SDS011;3307;52.416;16.862;2023-11-19T10:23:10;26.90;;;23.33;;
6547;SDS011;3307;52.416;16.862;2023-11-19T10:25:36;25.40;;;22.70;;
6547;SDS011;3307;52.416;16.862;2023-11-19T10:28:01;25.33;;;22.10;;
6547;SDS011;3307;52.416;16.862;2023-11-19T10:30:28;25.98;;;22.30;;
6547;SDS011;3307;52.416;16.862;2023-11-19T10:35:33;22.58;;;20.17;;
6547;SDS011;3307;52.416;16.862;2023-11-19T10:38:00;23.90;;;21.45;;
6547;SDS011;3307;52.416;16.862;2023-11-19T10:40:47;23.25;;;20.80;;
6547;SDS011;3307;52.416;16.862;2023-11-19T10:43:12;21.30;;;18.90;;
6547;SDS011;3307;52.416;16.862;2023-11-19T10:45:37;24.33;;;21.17;;
6547;SDS011;3307;52.416;16.862;2023-11-19T10:48:04;20.80;;;18.60;;
6547;SDS011;3307;52.416;16.862;2023-11-19T10:50:32;20.05;;;17.90;;
6547;SDS011;3307;52.416;16.862;2023-11-19T10:53:01;21.02;;;18.80;;
6547;SDS011;3307;52.416;16.862;2023-11-19T10:55:29;20.50;;;18.50;;
6547;SDS011;3307;52.416;16.862;2023-11-19T10:58:02;19.85;;;17.83;;
6547;SDS011;3307;52.416;16.862;2023-11-19T11:00:44;20.25;;;18.10;;
6547;SDS011;3307;52.416;16.862;2023-11-19T11:03:18;21.23;;;19.00;;
6547;SDS011;3307;52.416;16.862;2023-11-19T11:05:47;21.40;;;18.75;;
6547;SDS011;3307;52.416;16.862;2023-11-19T11:08:14;22.65;;;19.73;;
6547;SDS011;3307;52.416;16.862;2023-11-19T11:10:42;21.10;;;18.70;;
6547;SDS011;3307;52.416;16.862;2023-11-19T11:13:09;22.15;;;19.85;;
6547;SDS011;3307;52.416;16.862;2023-11-19T11:15:34;19.97;;;17.90;;
6547;SDS011;3307;52.416;16.862;2023-11-19T11:18:01;20.60;;;18.40;;
6547;SDS011;3307;52.416;16.862;2023-11-19T11:20:31;19.58;;;17.48;;
6547;SDS011;3307;52.416;16.862;2023-11-19T11:25:58;19.52;;;17.52;;
6547;SDS011;3307;52.416;16.862;2023-11-19T11:28:39;19.23;;;17.23;;
6547;SDS011;3307;52.416;16.862;2023-11-19T11:31:08;22.92;;;19.58;;
6547;SDS011;3307;52.416;16.862;2023-11-19T11:33:48;20.27;;;18.25;;
6547;SDS011;3307;52.416;16.862;2023-11-19T11:36:22;18.85;;;16.85;;
6547;SDS011;3307;52.416;16.862;2023-11-19T11:38:48;20.20;;;18.00;;
6547;SDS011;3307;52.416;16.862;2023-11-19T11:41:15;20.20;;;17.80;;
6547;SDS011;3307;52.416;16.862;2023-11-19T11:43:47;21.13;;;18.85;;
6547;SDS011;3307;52.416;16.862;2023-11-19T11:48:57;23.92;;;21.63;;
6547;SDS011;3307;52.416;16.862;2023-11-19T11:52:09;22.80;;;20.40;;
6547;SDS011;3307;52.416;16.862;2023-11-19T11:57:03;22.83;;;20.35;;
6547;SDS011;3307;52.416;16.862;2023-11-19T11:59:53;24.20;;;20.63;;
6547;SDS011;3307;52.416;16.862;2023-11-19T12:02:19;23.45;;;21.00;;
6547;SDS011;3307;52.416;16.862;2023-11-19T12:04:47;25.92;;;23.00;;
6547;SDS011;3307;52.416;16.862;2023-11-19T12:07:18;24.30;;;20.70;;
6547;SDS011;3307;52.416;16.862;2023-11-19T12:10:19;24.05;;;21.48;;
6547;SDS011;3307;52.416;16.862;2023-11-19T12:12:38;24.80;;;21.70;;
6547;SDS011;3307;52.416;16.862;2023-11-19T12:15:06;25.17;;;21.20;;
6547;SDS011;3307;52.416;16.862;2023-11-19T12:17:42;25.40;;;22.15;;
6547;SDS011;3307;52.416;16.862;2023-11-19T12:20:14;24.48;;;21.98;;
6547;SDS011;3307;52.416;16.862;2023-11-19T12:22:41;26.30;;;23.08;;
6547;SDS011;3307;52.416;16.862;2023-11-19T12:25:08;23.73;;;21.15;;
6547;SDS011;3307;52.416;16.862;2023-11-19T12:27:35;25.83;;;23.00;;
6547;SDS011;3307;52.416;16.862;2023-11-19T12:30:10;25.60;;;22.30;;
6547;SDS011;3307;52.416;16.862;2023-11-19T12:32:39;24.10;;;21.60;;
6547;SDS011;3307;52.416;16.862;2023-11-19T12:35:08;27.25;;;22.48;;
6547;SDS011;3307;52.416;16.862;2023-11-19T12:37:46;22.40;;;20.17;;
6547;SDS011;3307;52.416;16.862;2023-11-19T12:42:45;25.45;;;22.45;;
6547;SDS011;3307;52.416;16.862;2023-11-19T12:45:10;30.23;;;24.10;;
6547;SDS011;3307;52.416;16.862;2023-11-19T12:47:37;25.23;;;22.65;;
6547;SDS011;3307;52.416;16.862;2023-11-19T12:50:03;28.42;;;22.08;;
6547;SDS011;3307;52.416;16.862;2023-11-19T12:52:29;26.00;;;21.93;;
6547;SDS011;3307;52.416;16.862;2023-11-19T12:54:55;24.20;;;21.13;;
6547;SDS011;3307;52.416;16.862;2023-11-19T12:57:20;23.33;;;20.83;;
6547;SDS011;3307;52.416;16.862;2023-11-19T12:59:55;26.87;;;23.70;;
6547;SDS011;3307;52.416;16.862;2023-11-19T13:02:21;24.67;;;22.15;;
6547;SDS011;3307;52.416;16.862;2023-11-19T13:04:48;25.58;;;22.40;;
6547;SDS011;3307;52.416;16.862;2023-11-19T13:07:14;22.93;;;20.53;;
6547;SDS011;3307;52.416;16.862;2023-11-19T13:09:45;25.77;;;22.42;;
6547;SDS011;3307;52.416;16.862;2023-11-19T13:12:14;24.17;;;21.30;;
6547;SDS011;3307;52.416;16.862;2023-11-19T13:14:40;22.02;;;19.60;;
6547;SDS011;3307;52.416;16.862;2023-11-19T13:17:07;28.02;;;23.05;;
6547;SDS011;3307;52.416;16.862;2023-11-19T13:19:33;24.23;;;21.67;;
6547;SDS011;3307;52.416;16.862;2023-11-19T13:21:59;28.80;;;22.37;;
6547;SDS011;3307;52.416;16.862;2023-11-19T13:24:24;27.27;;;21.90;;
6547;SDS011;3307;52.416;16.862;2023-11-19T13:26:49;27.17;;;22.97;;
6547;SDS011;3307;52.416;16.862;2023-11-19T13:29:15;23.07;;;20.57;;
6547;SDS011;3307;52.416;16.862;2023-11-19T13:31:40;31.37;;;25.50;;
6547;SDS011;3307;52.416;16.862;2023-11-19T13:34:05;28.33;;;22.07;;
6547;SDS011;3307;52.416;16.862;2023-11-19T13:36:32;23.70;;;21.08;;
6547;SDS011;3307;52.416;16.862;2023-11-19T13:38:57;24.60;;;21.97;;
6547;SDS011;3307;52.416;16.862;2023-11-19T13:41:26;22.95;;;20.50;;
6547;SDS011;3307;52.416;16.862;2023-11-19T13:43:52;24.77;;;22.23;;
6547;SDS011;3307;52.416;16.862;2023-11-19T13:46:18;26.30;;;21.87;;
6547;SDS011;3307;52.416;16.862;2023-11-19T13:48:43;28.63;;;24.00;;
6547;SDS011;3307;52.416;16.862;2023-11-19T13:51:08;25.57;;;22.50;;
6547;SDS011;3307;52.416;16.862;2023-11-19T13:53:35;28.30;;;23.48;;
6547;SDS011;3307;52.416;16.862;2023-11-19T13:56:01;25.03;;;22.30;;
6547;SDS011;3307;52.416;16.862;2023-11-19T13:58:26;23.45;;;20.95;;
6547;SDS011;3307;52.416;16.862;2023-11-19T14:00:52;25.40;;;22.83;;
6547;SDS011;3307;52.416;16.862;2023-11-19T14:03:17;26.57;;;23.10;;
6547;SDS011;3307;52.416;16.862;2023-11-19T14:05:42;25.37;;;21.87;;
6547;SDS011;3307;52.416;16.862;2023-11-19T14:08:08;23.50;;;20.10;;
6547;SDS011;3307;52.416;16.862;2023-11-19T14:10:36;26.77;;;23.15;;
6547;SDS011;3307;52.416;16.862;2023-11-19T14:13:04;26.08;;;23.38;;
6547;SDS011;3307;52.416;16.862;2023-11-19T14:15:29;28.27;;;24.40;;
6547;SDS011;3307;52.416;16.862;2023-11-19T14:17:55;26.77;;;23.90;;
6547;SDS011;3307;52.416;16.862;2023-11-19T14:20:20;31.07;;;27.83;;
6547;SDS011;3307;52.416;16.862;2023-11-19T14:22:45;34.30;;;30.67;;
6547;SDS011;3307;52.416;16.862;2023-11-19T14:25:13;42.22;;;36.40;;
6547;SDS011;3307;52.416;16.862;2023-11-19T14:27:40;44.50;;;37.40;;
6547;SDS011;3307;52.416;16.862;2023-11-19T14:30:08;48.65;;;40.28;;
6547;SDS011;3307;52.416;16.862;2023-11-19T14:32:37;52.35;;;40.38;;
6547;SDS011;3307;52.416;16.862;2023-11-19T14:35:04;59.53;;;45.03;;
6547;SDS011;3307;52.416;16.862;2023-11-19T14:37:30;44.15;;;39.03;;
6547;SDS011;3307;52.416;16.862;2023-11-19T14:39:58;43.72;;;37.40;;
6547;SDS011;3307;52.416;16.862;2023-11-19T14:42:24;37.57;;;32.37;;
6547;SDS011;3307;52.416;16.862;2023-11-19T14:44:53;43.47;;;38.97;;